createdAt,value
2022-08-20T00:03:36.312Z,2.80
2022-08-20T00:06:09.921Z,2.92
2022-08-20T00:08:37.687Z,2.83
2022-08-20T00:11:07.668Z,3.33
2022-08-20T00:13:40.792Z,3.87
2022-08-20T00:16:08.664Z,3.40
2022-08-20T00:18:37.129Z,3.80
2022-08-20T00:21:08.504Z,3.85
2022-08-20T00:23:41.528Z,3.72
2022-08-20T00:26:09.756Z,4.53
2022-08-20T00:28:37.623Z,5.10
2022-08-20T00:31:09.443Z,4.18
2022-08-20T00:33:37.683Z,4.40
2022-08-20T00:36:07.115Z,4.93
2022-08-20T00:38:35.946Z,4.70
2022-08-20T00:41:03.218Z,4.47
2022-08-20T00:43:40.049Z,4.30
2022-08-20T00:46:11.990Z,4.40
2022-08-20T00:48:42.538Z,4.35
2022-08-20T00:51:27.628Z,4.10
2022-08-20T00:54:02.127Z,4.45
2022-08-20T00:58:57.671Z,3.75
2022-08-20T01:01:24.867Z,4.25
2022-08-20T01:03:56.658Z,4.30
2022-08-20T01:06:25.268Z,4.20
2022-08-20T01:08:52.844Z,4.55
2022-08-20T01:11:30.924Z,4.43
2022-08-20T01:14:30.545Z,4.70
2022-08-20T01:17:01.951Z,4.03
2022-08-20T01:19:51.536Z,4.13
2022-08-20T01:22:46.908Z,4.05
2022-08-20T01:25:25.322Z,4.50
2022-08-20T01:27:55.146Z,3.90
2022-08-20T01:30:23.768Z,4.47
2022-08-20T01:32:51.357Z,5.03
2022-08-20T01:35:21.832Z,4.30
2022-08-20T01:37:49.157Z,4.60
2022-08-20T01:40:23.843Z,4.25
2022-08-20T01:42:58.901Z,4.57
2022-08-20T01:45:30.346Z,4.97
2022-08-20T01:47:59.263Z,4.05
2022-08-20T01:50:28.939Z,4.80
2022-08-20T01:53:12.252Z,4.00
2022-08-20T01:55:39.679Z,5.20
2022-08-20T01:58:06.881Z,4.03
2022-08-20T02:00:35.840Z,4.68
2022-08-20T02:03:04.298Z,4.57
2022-08-20T02:05:33.355Z,4.45
2022-08-20T02:08:00.721Z,3.97
2022-08-20T02:10:31.751Z,4.20
2022-08-20T02:13:00.929Z,4.05
2022-08-20T02:15:34.670Z,3.70
2022-08-20T02:18:10.335Z,3.83
2022-08-20T02:20:39.132Z,4.30
2022-08-20T02:23:07.473Z,3.75
2022-08-20T02:25:37.969Z,4.07
2022-08-20T02:28:09.279Z,4.57
2022-08-20T02:30:43.817Z,4.37
2022-08-20T02:33:13.991Z,4.90
2022-08-20T02:35:43.028Z,4.03
2022-08-20T02:38:10.657Z,4.55
2022-08-20T02:40:38.075Z,4.10
2022-08-20T02:43:05.387Z,4.00
2022-08-20T02:45:43.618Z,3.45
2022-08-20T02:48:23.490Z,4.00
2022-08-20T02:50:54.213Z,3.55
2022-08-20T02:53:22.811Z,3.08
2022-08-20T02:55:50.498Z,3.60
2022-08-20T02:58:19.258Z,3.75
2022-08-20T03:00:47.169Z,3.90
2022-08-20T03:03:15.572Z,3.28
2022-08-20T03:05:44.624Z,3.58
2022-08-20T03:08:13.486Z,3.80
2022-08-20T03:10:44.127Z,4.20
2022-08-20T03:13:12.979Z,3.35
2022-08-20T03:15:43.672Z,3.47
2022-08-20T03:18:11.241Z,3.60
2022-08-20T03:20:38.927Z,4.53
2022-08-20T03:23:07.326Z,3.97
2022-08-20T03:25:34.474Z,4.28
2022-08-20T03:28:02.049Z,4.53
2022-08-20T03:30:31.214Z,5.60
2022-08-20T03:32:58.851Z,5.00
2022-08-20T03:35:27.979Z,5.72
2022-08-20T03:37:55.754Z,6.07
2022-08-20T03:40:27.616Z,5.70
2022-08-20T03:42:54.878Z,5.60
2022-08-20T03:45:23.591Z,6.40
2022-08-20T03:47:54.134Z,6.22
2022-08-20T03:50:24.815Z,6.55
2022-08-20T03:52:53.653Z,6.65
2022-08-20T03:55:22.452Z,5.82
2022-08-20T03:57:52.994Z,6.43
2022-08-20T04:00:31.362Z,6.00
2022-08-20T04:02:58.413Z,5.55
2022-08-20T04:05:28.323Z,5.53
2022-08-20T04:08:02.775Z,6.35
2022-08-20T04:10:30.633Z,5.85
2022-08-20T04:12:57.785Z,5.53
2022-08-20T04:15:25.089Z,5.75
2022-08-20T04:17:53.623Z,4.63
2022-08-20T04:20:23.881Z,5.10
2022-08-20T04:22:59.123Z,5.25
2022-08-20T04:25:29.855Z,5.45
2022-08-20T04:27:59.129Z,5.68
2022-08-20T04:30:26.788Z,5.32
2022-08-20T04:32:54.428Z,5.35
2022-08-20T04:35:24.825Z,4.45
2022-08-20T04:38:03.681Z,5.03
2022-08-20T04:40:49.420Z,4.28
2022-08-20T04:43:16.560Z,4.20
2022-08-20T04:45:44.995Z,3.95
2022-08-20T04:48:15.146Z,3.92
2022-08-20T04:50:45.155Z,3.83
2022-08-20T04:53:14.189Z,4.53
2022-08-20T04:55:42.930Z,5.05
2022-08-20T04:58:27.439Z,4.93
2022-08-20T05:01:01.014Z,4.72
2022-08-20T05:03:28.992Z,4.63
2022-08-20T05:05:57.026Z,4.70
2022-08-20T05:08:25.898Z,4.75
2022-08-20T05:10:56.093Z,5.18
2022-08-20T05:13:42.863Z,5.82
2022-08-20T05:16:10.156Z,4.97
2022-08-20T05:18:37.146Z,5.18
2022-08-20T05:21:07.956Z,5.22
2022-08-20T05:23:37.203Z,5.30
2022-08-20T05:26:09.473Z,5.45
2022-08-20T05:28:57.172Z,6.32
2022-08-20T05:31:31.667Z,5.68
2022-08-20T05:34:09.775Z,5.38
2022-08-20T05:36:43.081Z,5.90
2022-08-20T05:39:11.463Z,6.40
2022-08-20T05:41:39.625Z,5.57
2022-08-20T05:44:13.408Z,5.80
2022-08-20T05:46:42.790Z,5.88
2022-08-20T05:49:16.415Z,5.47
2022-08-20T05:51:44.122Z,5.90
2022-08-20T05:54:11.966Z,5.68
2022-08-20T05:56:39.563Z,6.93
2022-08-20T05:59:08.987Z,6.82
2022-08-20T06:01:38.986Z,6.43
2022-08-20T06:04:27.947Z,6.20
2022-08-20T06:06:58.469Z,5.38
2022-08-20T06:09:30.560Z,6.05
2022-08-20T06:12:01.853Z,5.82
2022-08-20T06:14:29.428Z,5.63
2022-08-20T06:17:03.440Z,6.28
2022-08-20T06:19:33.201Z,6.28
2022-08-20T06:22:00.976Z,5.85
2022-08-20T06:24:28.169Z,6.03
2022-08-20T06:27:00.421Z,6.30
2022-08-20T06:29:28.754Z,5.97
2022-08-20T06:31:56.126Z,5.80
2022-08-20T06:34:28.447Z,6.25
2022-08-20T06:36:59.490Z,6.72
2022-08-20T06:39:28.668Z,5.60
2022-08-20T06:41:58.646Z,6.13
2022-08-20T06:44:26.124Z,5.93
2022-08-20T06:46:54.437Z,6.95
2022-08-20T06:49:21.774Z,6.05
2022-08-20T06:51:51.853Z,5.35
2022-08-20T06:54:19.432Z,6.57
2022-08-20T06:56:46.794Z,6.13
2022-08-20T06:59:14.100Z,6.82
2022-08-20T07:01:41.262Z,7.15
2022-08-20T07:04:08.478Z,6.40
2022-08-20T07:06:35.688Z,6.88
2022-08-20T07:09:03.443Z,6.95
2022-08-20T07:11:30.310Z,7.18
2022-08-20T07:13:58.687Z,6.97
2022-08-20T07:16:26.553Z,8.95
2022-08-20T07:18:53.570Z,8.30
2022-08-20T07:21:20.522Z,12.30
2022-08-20T07:23:48.975Z,10.77
2022-08-20T07:26:16.684Z,10.02
2022-08-20T07:28:43.702Z,10.25
2022-08-20T07:31:31.445Z,10.93
2022-08-20T07:33:58.535Z,10.27
2022-08-20T07:36:28.011Z,10.70
2022-08-20T07:38:56.930Z,12.27
2022-08-20T07:41:24.603Z,11.23
2022-08-20T07:43:51.812Z,12.20
2022-08-20T07:46:21.659Z,11.95
2022-08-20T07:48:50.604Z,12.13
2022-08-20T07:51:22.193Z,12.85
2022-08-20T07:53:51.751Z,12.60
2022-08-20T07:56:22.505Z,12.45
2022-08-20T07:58:55.279Z,12.43
2022-08-20T08:01:26.084Z,11.15
2022-08-20T08:03:53.765Z,12.55
2022-08-20T08:06:29.990Z,14.32
2022-08-20T08:09:10.965Z,12.60
2022-08-20T08:11:50.183Z,12.38
2022-08-20T08:14:23.389Z,13.32
2022-08-20T08:16:53.284Z,13.10
2022-08-20T08:19:21.170Z,13.50
2022-08-20T08:21:48.803Z,12.50
2022-08-20T08:24:21.108Z,12.60
2022-08-20T08:26:50.162Z,12.02
2022-08-20T08:29:17.401Z,11.05
2022-08-20T08:31:44.563Z,10.85
2022-08-20T08:34:11.913Z,11.73
2022-08-20T08:36:39.533Z,12.25
2022-08-20T08:39:07.042Z,12.07
2022-08-20T08:41:52.860Z,11.30
2022-08-20T08:44:27.156Z,12.82
2022-08-20T08:46:59.316Z,11.50
2022-08-20T08:49:37.269Z,10.68
2022-08-20T08:52:22.435Z,11.35
2022-08-20T08:54:53.788Z,10.27
2022-08-20T08:57:20.932Z,10.25
2022-08-20T09:00:04.137Z,12.02
2022-08-20T09:02:33.131Z,12.35
2022-08-20T09:05:02.187Z,13.02
2022-08-20T09:07:32.663Z,11.50
2022-08-20T09:10:01.488Z,13.40
2022-08-20T09:12:28.487Z,11.95
2022-08-20T09:14:55.501Z,11.90
2022-08-20T09:17:23.904Z,12.95
2022-08-20T09:19:52.377Z,11.85
2022-08-20T09:22:22.378Z,10.75
2022-08-20T09:24:50.800Z,11.48
2022-08-20T09:27:18.759Z,12.18
2022-08-20T09:29:46.248Z,9.70
2022-08-20T09:32:22.351Z,10.90
2022-08-20T09:34:56.198Z,10.00
2022-08-20T09:37:24.878Z,8.70
2022-08-20T09:39:52.199Z,10.55
2022-08-20T09:42:28.769Z,9.57
2022-08-20T09:44:56.612Z,10.90
2022-08-20T09:47:23.783Z,10.57
2022-08-20T09:49:51.398Z,9.65
2022-08-20T09:52:31.264Z,8.35
2022-08-20T09:55:05.041Z,8.23
2022-08-20T09:57:32.679Z,8.05
2022-08-20T10:00:02.186Z,7.90
2022-08-20T10:02:39.663Z,7.55
2022-08-20T10:05:07.658Z,9.52
2022-08-20T10:07:39.788Z,8.45
2022-08-20T10:10:09.459Z,8.45
2022-08-20T10:12:36.895Z,7.60
2022-08-20T10:15:05.127Z,6.47
2022-08-20T10:17:32.397Z,7.15
2022-08-20T10:19:59.320Z,7.65
2022-08-20T10:22:27.433Z,6.60
2022-08-20T10:24:54.681Z,5.90
2022-08-20T10:27:21.658Z,5.22
2022-08-20T10:29:48.516Z,5.68
2022-08-20T10:32:17.181Z,6.38
2022-08-20T10:34:45.716Z,6.65
2022-08-20T10:37:17.770Z,5.22
2022-08-20T10:42:12.340Z,4.80
2022-08-20T10:44:40.019Z,3.70
2022-08-20T10:47:23.418Z,3.92
2022-08-20T10:49:53.529Z,3.30
2022-08-20T10:52:21.231Z,2.70
2022-08-20T10:54:48.222Z,2.70
2022-08-20T10:57:22.411Z,2.60
2022-08-20T10:59:51.223Z,2.95
2022-08-20T11:02:19.594Z,2.33
2022-08-20T11:04:47.138Z,2.63
2022-08-20T11:07:56.203Z,2.22
2022-08-20T11:10:28.040Z,1.98
2022-08-20T11:12:55.352Z,2.30
2022-08-20T11:15:22.448Z,2.88
2022-08-20T11:17:49.709Z,2.25
2022-08-20T11:20:19.027Z,2.00
2022-08-20T11:22:46.608Z,2.38
2022-08-20T11:25:13.764Z,2.28
2022-08-20T11:27:44.481Z,2.20
2022-08-20T11:30:15.728Z,2.38
2022-08-20T11:32:43.391Z,2.85
2022-08-20T11:35:38.891Z,2.25
2022-08-20T11:37:59.282Z,2.13
2022-08-20T11:40:28.422Z,2.47
2022-08-20T11:45:50.350Z,2.45
2022-08-20T11:48:18.393Z,2.13
2022-08-20T11:50:46.389Z,2.28
2022-08-20T11:53:13.378Z,2.30
2022-08-20T11:55:42.307Z,2.30
2022-08-20T11:58:10.055Z,2.38
2022-08-20T12:00:37.322Z,2.40
2022-08-20T12:03:09.425Z,2.00
2022-08-20T12:05:39.005Z,2.25
2022-08-20T12:08:06.990Z,2.17
2022-08-20T12:10:34.232Z,2.30
2022-08-20T12:13:02.654Z,2.38
2022-08-20T12:15:32.580Z,2.22
2022-08-20T12:17:59.728Z,2.13
2022-08-20T12:20:27.323Z,2.50
2022-08-20T12:22:54.442Z,2.10
2022-08-20T12:25:21.750Z,2.13
2022-08-20T12:27:48.807Z,1.90
2022-08-20T12:30:20.096Z,1.85
2022-08-20T12:32:47.977Z,1.73
2022-08-20T12:35:16.951Z,1.98
2022-08-20T12:37:45.854Z,1.50
2022-08-20T12:40:24.508Z,1.77
2022-08-20T12:43:00.394Z,1.83
2022-08-20T12:45:27.415Z,1.77
2022-08-20T12:48:01.875Z,1.90
2022-08-20T12:50:31.623Z,1.67
2022-08-20T12:52:59.361Z,1.70
2022-08-20T12:55:26.637Z,1.77
2022-08-20T12:57:57.577Z,1.75
2022-08-20T13:00:27.640Z,1.35
2022-08-20T13:02:56.485Z,1.85
2022-08-20T13:05:24.561Z,1.63
2022-08-20T13:07:52.942Z,1.75
2022-08-20T13:10:24.747Z,1.80
2022-08-20T13:12:52.042Z,1.70
2022-08-20T13:15:19.708Z,1.80
2022-08-20T13:17:51.728Z,1.80
2022-08-20T13:20:19.408Z,1.42
2022-08-20T13:22:46.532Z,1.80
2022-08-20T13:25:14.868Z,1.75
2022-08-20T13:27:43.381Z,1.95
2022-08-20T13:30:14.450Z,1.83
2022-08-20T13:32:42.506Z,1.50
2022-08-20T13:35:11.638Z,1.85
2022-08-20T13:37:39.733Z,2.13
2022-08-20T13:40:08.940Z,1.95
2022-08-20T13:42:38.096Z,1.80
2022-08-20T13:45:06.339Z,1.95
2022-08-20T13:47:36.933Z,2.17
2022-08-20T13:50:20.460Z,2.25
2022-08-20T13:52:48.420Z,1.65
2022-08-20T13:55:20.464Z,1.65
2022-08-20T13:57:48.978Z,2.35
2022-08-20T14:00:31.193Z,1.80
2022-08-20T14:03:01.307Z,2.65
2022-08-20T14:05:29.954Z,2.25
2022-08-20T14:08:05.836Z,2.22
2022-08-20T14:10:33.882Z,2.28
2022-08-20T14:13:01.158Z,2.28
2022-08-20T14:15:28.259Z,2.40
2022-08-20T14:17:58.311Z,2.40
2022-08-20T14:20:32.126Z,1.80
2022-08-20T14:23:01.021Z,2.08
2022-08-20T14:25:28.974Z,1.92
2022-08-20T14:27:56.517Z,2.50
2022-08-20T14:30:30.394Z,2.22
2022-08-20T14:32:57.710Z,1.92
2022-08-20T14:35:24.949Z,2.40
2022-08-20T14:37:53.926Z,2.05
2022-08-20T14:40:23.289Z,1.90
2022-08-20T14:42:51.701Z,1.80
2022-08-20T14:45:20.579Z,1.73
2022-08-20T14:47:54.275Z,2.13
2022-08-20T14:50:31.301Z,2.22
2022-08-20T14:52:59.816Z,2.38
2022-08-20T14:55:30.894Z,1.75
2022-08-20T14:57:57.979Z,1.83
2022-08-20T15:00:28.667Z,2.05
2022-08-20T15:02:56.067Z,1.65
2022-08-20T15:05:24.106Z,2.38
2022-08-20T15:07:53.909Z,2.00
2022-08-20T15:10:25.219Z,1.63
2022-08-20T15:12:52.312Z,2.22
2022-08-20T15:15:19.545Z,1.92
2022-08-20T15:17:49.336Z,2.00
2022-08-20T15:20:19.929Z,2.47
2022-08-20T15:22:48.498Z,1.60
2022-08-20T15:25:18.314Z,1.67
2022-08-20T15:27:46.284Z,1.45
2022-08-20T15:30:17.571Z,1.20
2022-08-20T15:32:45.192Z,1.42
2022-08-20T15:35:13.305Z,1.45
2022-08-20T15:37:46.944Z,1.52
2022-08-20T15:40:18.014Z,1.33
2022-08-20T15:42:46.638Z,1.30
2022-08-20T15:45:21.745Z,1.80
2022-08-20T15:48:15.337Z,1.40
2022-08-20T15:50:47.876Z,1.30
2022-08-20T15:53:54.410Z,1.15
2022-08-20T15:56:42.975Z,1.50
2022-08-20T15:59:40.184Z,1.58
2022-08-20T16:02:26.064Z,1.40
2022-08-20T16:05:00.514Z,1.98
2022-08-20T16:07:54.001Z,1.52
2022-08-20T16:10:37.863Z,1.30
2022-08-20T16:13:18.403Z,1.38
2022-08-20T16:15:49.424Z,1.33
2022-08-20T16:18:24.289Z,1.20
2022-08-20T16:20:54.179Z,0.98
2022-08-20T16:23:30.309Z,1.15
2022-08-20T16:26:13.823Z,1.20
2022-08-20T16:29:11.811Z,1.10
2022-08-20T16:31:54.845Z,1.13
2022-08-20T16:34:33.828Z,1.42
2022-08-20T16:37:21.941Z,0.90
2022-08-20T16:40:27.443Z,1.50
2022-08-20T16:42:58.538Z,0.98
2022-08-20T16:45:29.565Z,1.40
2022-08-20T16:48:02.650Z,1.40
2022-08-20T16:50:32.250Z,1.42
2022-08-20T16:52:59.441Z,1.40
2022-08-20T16:55:26.619Z,1.13
2022-08-20T16:57:54.109Z,1.23
2022-08-20T17:00:35.190Z,1.40
2022-08-20T17:03:08.561Z,1.50
2022-08-20T17:05:38.608Z,1.40
2022-08-20T17:08:09.234Z,1.38
2022-08-20T17:10:55.139Z,1.60
2022-08-20T17:13:34.732Z,1.25
2022-08-20T17:16:23.307Z,1.40
2022-08-20T17:18:53.483Z,1.60
2022-08-20T17:21:30.933Z,1.20
2022-08-20T17:24:01.082Z,1.60
2022-08-20T17:26:47.194Z,1.42
2022-08-20T17:29:23.677Z,1.63
2022-08-20T17:31:57.166Z,1.73
2022-08-20T17:34:44.697Z,1.27
2022-08-20T17:37:23.804Z,1.30
2022-08-20T17:39:54.425Z,1.35
2022-08-20T17:42:26.871Z,1.55
2022-08-20T17:45:16.059Z,1.40
2022-08-20T17:47:44.016Z,1.20
2022-08-20T17:50:19.963Z,1.63
2022-08-20T17:52:57.870Z,1.65
2022-08-20T17:55:26.769Z,1.60
2022-08-20T17:57:58.005Z,1.38
2022-08-20T18:00:28.422Z,0.80
2022-08-20T18:03:01.116Z,1.30
2022-08-20T18:05:31.958Z,1.55
2022-08-20T18:08:08.968Z,1.30
2022-08-20T18:10:57.345Z,1.23
2022-08-20T18:13:37.048Z,1.23
2022-08-20T18:16:19.817Z,1.67
2022-08-20T18:18:56.529Z,1.75
2022-08-20T18:21:44.783Z,1.30
2022-08-20T18:24:37.119Z,1.15
2022-08-20T18:29:42.153Z,1.35
2022-08-20T18:32:30.529Z,1.40
2022-08-20T18:35:23.855Z,1.52
2022-08-20T18:37:51.101Z,1.45
2022-08-20T18:40:33.268Z,1.33
2022-08-20T18:43:12.469Z,1.70
2022-08-20T18:45:39.895Z,1.60
2022-08-20T18:48:07.857Z,1.38
2022-08-20T18:50:40.867Z,1.20
2022-08-20T18:53:19.597Z,1.35
2022-08-20T18:55:59.818Z,1.30
2022-08-20T18:58:38.316Z,1.40
2022-08-20T19:01:12.143Z,1.38
2022-08-20T19:03:46.049Z,1.45
2022-08-20T19:06:15.849Z,1.27
2022-08-20T19:08:51.509Z,1.50
2022-08-20T19:11:28.897Z,1.20
2022-08-20T19:14:30.867Z,1.35
2022-08-20T19:17:03.926Z,1.38
2022-08-20T19:19:33.103Z,1.33
2022-08-20T19:22:01.950Z,1.40
2022-08-20T19:24:35.432Z,1.27
2022-08-20T19:27:06.079Z,1.73
2022-08-20T19:29:40.666Z,1.60
2022-08-20T19:32:16.194Z,1.33
2022-08-20T19:34:51.600Z,1.50
2022-08-20T19:37:35.244Z,1.50
2022-08-20T19:40:20.845Z,1.77
2022-08-20T19:42:49.424Z,1.88
2022-08-20T19:45:36.727Z,1.77
2022-08-20T19:48:07.052Z,1.83
2022-08-20T19:50:54.738Z,2.00
2022-08-20T19:53:34.128Z,2.05
2022-08-20T19:56:09.727Z,1.73
2022-08-20T19:58:37.708Z,1.33
2022-08-20T20:01:11.016Z,1.70
2022-08-20T20:03:38.525Z,1.30
2022-08-20T20:06:17.071Z,1.70
2022-08-20T20:09:13.750Z,2.13
2022-08-20T20:11:52.535Z,2.55
2022-08-20T20:14:24.563Z,2.58
2022-08-20T20:16:52.401Z,3.40
2022-08-20T20:19:28.064Z,3.05
2022-08-20T20:22:08.520Z,4.20
2022-08-20T20:24:57.231Z,3.92
2022-08-20T20:27:27.690Z,5.57
2022-08-20T20:30:13.854Z,5.00
2022-08-20T20:32:49.857Z,4.75
2022-08-20T20:35:35.337Z,5.22
2022-08-20T20:38:08.776Z,4.53
2022-08-20T20:40:47.218Z,4.15
2022-08-20T20:43:38.193Z,3.58
2022-08-20T20:46:19.539Z,2.70
2022-08-20T20:48:57.303Z,3.13
2022-08-20T20:51:29.314Z,2.40
2022-08-20T20:54:01.821Z,2.45
2022-08-20T20:56:38.407Z,2.22
2022-08-20T20:59:07.489Z,2.40
2022-08-20T21:01:48.142Z,2.20
2022-08-20T21:04:22.374Z,2.38
2022-08-20T21:06:51.645Z,1.90
2022-08-20T21:09:19.803Z,2.03
2022-08-20T21:11:47.294Z,2.05
2022-08-20T21:14:15.273Z,2.10
2022-08-20T21:16:43.332Z,2.15
2022-08-20T21:19:11.468Z,1.98
2022-08-20T21:21:39.478Z,1.60
2022-08-20T21:24:07.495Z,1.95
2022-08-20T21:26:34.906Z,2.10
2022-08-20T21:29:02.563Z,1.83
2022-08-20T21:31:34.125Z,1.67
2022-08-20T21:34:01.611Z,1.88
2022-08-20T21:36:28.908Z,1.90
2022-08-20T21:38:56.282Z,1.92
2022-08-20T21:41:29.533Z,1.88
2022-08-20T21:44:03.592Z,1.77
2022-08-20T21:46:31.538Z,1.80
2022-08-20T21:48:59.007Z,2.15
2022-08-20T21:51:28.518Z,2.17
2022-08-20T21:53:55.550Z,2.55
2022-08-20T21:56:22.703Z,2.03
2022-08-20T21:58:51.596Z,1.92
2022-08-20T22:01:22.788Z,2.20
2022-08-20T22:03:51.911Z,1.85
2022-08-20T22:06:20.316Z,1.80
2022-08-20T22:08:47.364Z,1.95
2022-08-20T22:11:14.789Z,1.58
2022-08-20T22:13:42.372Z,2.15
2022-08-20T22:16:11.426Z,1.92
2022-08-20T22:18:39.446Z,2.38
2022-08-20T22:21:10.108Z,2.08
2022-08-20T22:23:40.394Z,2.10
2022-08-20T22:26:08.541Z,1.90
2022-08-20T22:28:36.201Z,2.00
2022-08-20T22:31:04.389Z,2.60
2022-08-20T22:33:33.093Z,1.95
2022-08-20T22:36:00.922Z,1.95
2022-08-20T22:38:28.623Z,2.50
2022-08-20T22:40:55.782Z,2.13
2022-08-20T22:43:23.703Z,1.73
2022-08-20T22:45:55.892Z,2.20
2022-08-20T22:50:52.195Z,1.65
2022-08-20T22:53:21.978Z,1.70
2022-08-20T22:55:49.438Z,2.28
2022-08-20T22:58:17.773Z,2.20
2022-08-20T23:00:46.756Z,1.70
2022-08-20T23:03:18.019Z,2.03
2022-08-20T23:05:50.718Z,2.08
2022-08-20T23:08:17.790Z,2.25
2022-08-20T23:10:44.973Z,1.80
2022-08-20T23:13:12.204Z,2.10
2022-08-20T23:15:41.516Z,2.30
2022-08-20T23:18:15.882Z,2.10
2022-08-20T23:20:45.387Z,2.20
2022-08-20T23:23:12.484Z,2.00
2022-08-20T23:25:40.628Z,2.20
2022-08-20T23:28:07.632Z,1.73
2022-08-20T23:30:35.160Z,2.05
2022-08-20T23:33:03.756Z,2.22
2022-08-20T23:35:33.009Z,2.30
2022-08-20T23:38:00.421Z,2.15
2022-08-20T23:40:28.577Z,2.08
2022-08-20T23:42:57.073Z,2.40
2022-08-20T23:45:24.642Z,2.50
2022-08-20T23:47:52.290Z,2.75
2022-08-20T23:50:24.245Z,1.85
2022-08-20T23:52:52.057Z,1.98
2022-08-20T23:55:19.362Z,2.08
2022-08-20T23:57:46.815Z,1.95
